Time;durP1;ratioP1;P1;durP2;ratioP2;P2;SDS_P1;SDS_P2;PMS_P1;PMS_P2;Temp;Humidity;BMP_temperature;BMP_pressure;BME280_temperature;BME280_humidity;BME280_pressure;Samples;Min_cycle;Max_cycle;Signal;HPM_P1;HPM_P2
2022/06/10 00:00:34;;;;;;;;;;;;;;;-140.72;100.00;52553.19;6278816;22;19912;-70
2022/06/10 00:02:59;;;;;;;;;;;;;;;-140.72;100.00;52593.78;6278363;22;19918;-70
2022/06/10 00:05:26;;;;;;;;;;;;;;;-140.72;100.00;52577.53;6250018;22;19994;-69
2022/06/10 00:07:52;;;;;;;;;;;;;;;-140.72;100.00;52559.28;6277825;22;19912;-70
2022/06/10 00:10:23;;;;;;;;;;;;;;;-140.72;100.00;52543.03;6250123;22;19911;-70
2022/06/10 00:12:49;;;;;;;;;;;;;;;-140.72;100.00;52553.19;6277651;22;20249;-70
2022/06/10 00:15:15;;;;;;;;;;;;;;;-140.72;100.00;52547.09;6250360;22;19915;-70
2022/06/10 00:17:40;;;;;;;;;;;;;;;-140.72;100.00;52549.13;6277701;22;19911;-70
2022/06/10 00:20:06;;;;;;;;;;;;;;;-140.72;100.00;52549.13;6277823;22;19915;-70
2022/06/10 00:22:31;;;;;;;;;;;;;;;-140.72;100.00;52545.06;6277036;22;20351;-70
2022/06/10 00:24:57;;;;;;;;;;;;;;;-140.72;100.00;52559.28;6276667;22;19911;-69
2022/06/10 00:27:22;;;;;;;;;;;;;;;-140.72;100.00;52536.97;6277527;22;19922;-70
2022/06/10 00:29:48;;;;;;;;;;;;;;;-140.72;100.00;52573.50;6250007;22;19911;-70
2022/06/10 00:32:13;;;;;;;;;;;;;;;-140.72;100.00;52551.16;6277171;22;19998;-70
2022/06/10 00:34:38;;;;;;;;;;;;;;;-140.72;100.00;52577.53;6277288;22;19972;-69
2022/06/10 00:37:05;;;;;;;;;;;;;;;-140.72;100.00;52563.34;6250235;22;19915;-69
2022/06/10 00:39:30;;;;;;;;;;;;;;;-140.72;100.00;52553.19;6250124;22;19982;-70
2022/06/10 00:41:55;;;;;;;;;;;;;;;-140.72;100.00;52534.94;6276756;22;19912;-70
2022/06/10 00:44:31;;;;;;;;;;;;;;;-140.72;100.00;52512.59;6249835;22;19923;-70
2022/06/10 00:46:57;;;;;;;;;;;;;;;-140.72;100.00;52532.91;6277752;22;19911;-70
2022/06/10 00:49:45;;;;;;;;;;;;;;;-140.72;100.00;52536.97;6276453;22;20351;-70
2022/06/10 00:52:24;;;;;;;;;;;;;;;-140.72;100.00;52524.78;6277547;22;19911;-70
2022/06/10 00:54:55;;;;;;;;;;;;;;;-140.72;100.00;52567.41;6250116;22;20243;-70
2022/06/10 00:57:23;;;;;;;;;;;;;;;-140.72;100.00;52543.03;6244961;23;19915;-70
2022/06/10 00:59:48;;;;;;;;;;;;;;;-140.72;100.00;52526.81;6245545;22;19918;-70
2022/06/10 01:02:18;;;;;;;;;;;;;;;-140.72;100.00;52508.56;6245309;23;19915;-69
2022/06/10 01:04:44;;;;;;;;;;;;;;;-140.72;100.00;52526.81;6246129;22;19919;-69
2022/06/10 01:07:10;;;;;;;;;;;;;;;-140.72;100.00;52551.16;6246291;22;20330;-70
2022/06/10 01:09:36;;;;;;;;;;;;;;;-140.72;100.00;52532.91;6246484;22;19919;-70
2022/06/10 01:12:18;;;;;;;;;;;;;;;-140.72;100.00;52520.72;6246537;22;19923;-70
2022/06/10 01:14:44;;;;;;;;;;;;;;;-140.72;100.00;52534.94;6246689;22;19911;-70
2022/06/10 01:17:18;;;;;;;;;;;;;;;-140.72;100.00;52551.16;6245006;23;19935;-70
2022/06/10 01:19:43;;;;;;;;;;;;;;;-140.72;100.00;52551.16;6248016;23;20241;-70
2022/06/10 01:22:19;;;;;;;;;;;;;;;-140.72;100.00;52539.00;6248835;23;19912;-70
2022/06/10 01:24:50;;;;;;;;;;;;;;;-140.72;100.00;52530.88;6248851;22;19938;-69
2022/06/10 01:30:05;;;;;;;;;;;;;;;-140.72;100.00;52528.84;6248150;23;19919;-69
2022/06/10 01:32:46;;;;;;;;;;;;;;;-140.72;100.00;52520.72;6248548;23;19973;-69
2022/06/10 01:35:23;;;;;;;;;;;;;;;-140.72;100.00;52512.59;6248052;22;20238;-70
2022/06/10 01:38:01;;;;;;;;;;;;;;;-140.72;100.00;52545.06;6249683;22;19919;-69
2022/06/10 01:40:33;;;;;;;;;;;;;;;-140.72;100.00;52528.84;6246473;23;19994;-70
2022/06/10 01:43:01;;;;;;;;;;;;;;;-140.72;100.00;52536.97;6248138;22;19912;-70
2022/06/10 01:45:26;;;;;;;;;;;;;;;-140.72;100.00;52494.34;6247677;23;19919;-70
2022/06/10 01:48:02;;;;;;;;;;;;;;;-140.72;100.00;52524.78;6247436;23;19912;-71
2022/06/10 01:50:39;;;;;;;;;;;;;;;-140.72;100.00;52530.88;6246422;23;19918;-70
2022/06/10 01:53:10;;;;;;;;;;;;;;;-140.72;100.00;52512.59;6249664;22;19931;-70
2022/06/10 01:55:39;;;;;;;;;;;;;;;-140.72;100.00;52553.19;6262053;22;19904;-70
2022/06/10 01:58:07;;;;;;;;;;;;;;;-140.72;100.00;52518.69;6286865;22;20297;-70
2022/06/10 02:00:34;;;;;;;;;;;;;;;-140.72;100.00;52472.03;6281025;22;19939;-70
2022/06/10 02:03:13;;;;;;;;;;;;;;;-140.72;100.00;52577.53;6279031;22;20347;-70
2022/06/10 02:05:41;;;;;;;;;;;;;;;-140.72;100.00;52502.47;6278134;22;20017;-70
2022/06/10 02:08:15;;;;;;;;;;;;;;;-140.72;100.00;52530.88;6278327;22;19991;-70
2022/06/10 02:10:44;;;;;;;;;;;;;;;-140.72;100.00;52536.97;6277909;22;19911;-70
2022/06/10 02:13:13;;;;;;;;;;;;;;;-140.72;100.00;52534.94;6277745;22;19927;-70
2022/06/10 02:15:43;;;;;;;;;;;;;;;-140.72;100.00;52506.53;6277924;22;19946;-70
2022/06/10 02:18:21;;;;;;;;;;;;;;;-140.72;100.00;52563.34;6277510;22;19917;-70
2022/06/10 02:20:53;;;;;;;;;;;;;;;-140.72;100.00;52530.88;6278394;22;19911;-70
2022/06/10 02:23:21;;;;;;;;;;;;;;;-140.72;100.00;52508.56;6250684;22;19939;-70
2022/06/10 02:25:48;;;;;;;;;;;;;;;-140.72;100.00;52506.53;6278183;22;19946;-70
2022/06/10 02:28:15;;;;;;;;;;;;;;;-140.72;100.00;52518.69;6277245;22;19922;-70
2022/06/10 02:30:43;;;;;;;;;;;;;;;-140.72;100.00;52547.09;6277127;22;19911;-70
2022/06/10 02:33:34;;;;;;;;;;;;;;;-140.72;100.00;52545.06;6272956;22;20247;-78
2022/06/10 02:36:25;;;;;;;;;;;;;;;-140.72;100.00;52532.91;6212851;23;20047;-78
2022/06/10 02:39:30;;;;;;;;;;;;;;;-140.72;100.00;52500.44;6213644;23;20197;-78
2022/06/10 02:42:14;;;;;;;;;;;;;;;-140.72;100.00;52498.41;6062208;23;19917;-78
2022/06/10 02:47:45;;;;;;;;;;;;;;;-140.72;100.00;52522.75;6063167;23;19920;-78
2022/06/10 02:50:14;;;;;;;;;;;;;;;-140.72;100.00;52504.50;6063699;23;20272;-77
2022/06/10 02:55:45;;;;;;;;;;;;;;;-140.72;100.00;52518.69;6263254;22;19996;-66
2022/06/10 03:01:13;;;;;;;;;;;;;;;-140.72;100.00;52530.88;6282595;22;20399;-66
2022/06/10 03:03:44;;;;;;;;;;;;;;;-140.72;100.00;52522.75;6285485;22;19919;-66
2022/06/10 03:06:09;;;;;;;;;;;;;;;-140.72;100.00;52524.78;6283409;22;19918;-67
2022/06/10 03:08:36;;;;;;;;;;;;;;;-140.72;100.00;52561.31;6283688;22;20400;-66
2022/06/10 03:11:09;;;;;;;;;;;;;;;-140.72;100.00;52547.09;6284971;22;20248;-66
2022/06/10 03:13:40;;;;;;;;;;;;;;;-140.72;100.00;52524.78;6283984;22;19961;-68
2022/06/10 03:16:09;;;;;;;;;;;;;;;-140.72;100.00;52551.16;6257560;22;19918;-66
2022/06/10 03:18:43;;;;;;;;;;;;;;;-140.72;100.00;52563.34;6285103;22;19918;-66
2022/06/10 03:21:28;;;;;;;;;;;;;;;-140.72;100.00;52557.25;6258640;22;19998;-66
2022/06/10 03:24:05;;;;;;;;;;;;;;;-140.72;100.00;52506.53;6284757;22;19915;-66
2022/06/10 03:26:40;;;;;;;;;;;;;;;-140.72;100.00;52524.78;6283912;22;20250;-66
2022/06/10 03:29:23;;;;;;;;;;;;;;;-140.72;100.00;52551.16;6257119;22;19912;-66
2022/06/10 03:31:51;;;;;;;;;;;;;;;-140.72;100.00;52561.31;6257210;22;19918;-66
2022/06/10 03:34:29;;;;;;;;;;;;;;;-140.72;100.00;52536.97;6283803;22;19912;-65
2022/06/10 03:36:57;;;;;;;;;;;;;;;-140.72;100.00;52553.19;6257729;22;20287;-66
2022/06/10 03:39:23;;;;;;;;;;;;;;;-140.72;100.00;52545.06;6284430;22;19911;-66
2022/06/10 03:41:54;;;;;;;;;;;;;;;-140.72;100.00;52567.41;6257389;22;19917;-66
2022/06/10 03:44:20;;;;;;;;;;;;;;;-140.72;100.00;52524.78;6256500;22;19918;-66
2022/06/10 03:46:47;;;;;;;;;;;;;;;-140.72;100.00;52547.09;6257236;22;19911;-66
2022/06/10 03:49:14;;;;;;;;;;;;;;;-140.72;100.00;52557.25;6256862;22;19911;-66
2022/06/10 03:51:40;;;;;;;;;;;;;;;-140.72;100.00;52510.59;6284412;22;19934;-67
2022/06/10 03:54:06;;;;;;;;;;;;;;;-140.72;100.00;52510.59;6288511;22;20356;-66
2022/06/10 03:56:31;;;;;;;;;;;;;;;-140.72;100.00;52516.66;6286683;22;20654;-66
2022/06/10 03:58:57;;;;;;;;;;;;;;;-140.72;100.00;52494.34;6287188;22;19938;-69
2022/06/10 04:01:22;;;;;;;;;;;;;;;-140.72;100.00;52514.63;6289568;22;20326;-66
2022/06/10 04:03:47;;;;;;;;;;;;;;;-140.72;100.00;52536.97;6285765;22;19915;-66
2022/06/10 04:06:13;;;;;;;;;;;;;;;-140.72;100.00;52492.31;6285298;22;19912;-66
2022/06/10 04:08:38;;;;;;;;;;;;;;;-140.72;100.00;52514.63;6283954;22;19912;-66
2022/06/10 04:11:03;;;;;;;;;;;;;;;-140.72;100.00;52498.41;6289009;22;19911;-66
2022/06/10 04:13:29;;;;;;;;;;;;;;;-140.72;100.00;52508.56;6255514;22;19991;-66
2022/06/10 04:15:54;;;;;;;;;;;;;;;-140.72;100.00;52518.69;6285039;22;19918;-66
2022/06/10 04:18:19;;;;;;;;;;;;;;;-140.72;100.00;52524.78;6255502;22;19962;-66
2022/06/10 04:20:45;;;;;;;;;;;;;;;-140.72;100.00;52518.69;6281014;22;20240;-70
2022/06/10 04:23:12;;;;;;;;;;;;;;;-140.72;100.00;52520.72;6280176;22;19990;-69
2022/06/10 04:25:38;;;;;;;;;;;;;;;-140.72;100.00;52512.59;6251976;22;19934;-69
2022/06/10 04:28:04;;;;;;;;;;;;;;;-140.72;100.00;52539.00;6251509;22;19918;-72
2022/06/10 04:30:40;;;;;;;;;;;;;;;-140.72;100.00;52516.66;6276315;22;20408;-71
2022/06/10 04:33:05;;;;;;;;;;;;;;;-140.72;100.00;52478.13;6276841;22;19976;-70
2022/06/10 04:35:32;;;;;;;;;;;;;;;-140.72;100.00;52480.16;6276309;22;19938;-70
2022/06/10 04:37:58;;;;;;;;;;;;;;;-140.72;100.00;52534.94;6249155;22;19951;-70
2022/06/10 04:40:25;;;;;;;;;;;;;;;-140.72;100.00;52504.50;6276701;22;19978;-70
2022/06/10 04:42:50;;;;;;;;;;;;;;;-140.72;100.00;52500.44;6276095;22;19956;-70
2022/06/10 04:45:17;;;;;;;;;;;;;;;-140.72;100.00;52506.53;6276345;22;19965;-70
2022/06/10 04:47:42;;;;;;;;;;;;;;;-140.72;100.00;52502.47;6276177;22;19911;-70
2022/06/10 04:50:09;;;;;;;;;;;;;;;-140.72;100.00;52484.19;6282631;22;19912;-68
2022/06/10 04:52:35;;;;;;;;;;;;;;;-140.72;100.00;52496.38;6297213;22;19935;-68
2022/06/10 04:55:00;;;;;;;;;;;;;;;-140.72;100.00;52520.72;6296153;22;19916;-68
2022/06/10 04:57:26;;;;;;;;;;;;;;;-140.72;100.00;52526.81;6296452;22;19911;-69
2022/06/10 04:59:52;;;;;;;;;;;;;;;-140.72;100.00;52508.56;6296817;22;19911;-70
2022/06/10 05:02:17;;;;;;;;;;;;;;;-140.72;100.00;52488.25;6292604;22;19926;-67
2022/06/10 05:04:42;;;;;;;;;;;;;;;-140.72;100.00;52500.44;6288011;22;19911;-67
2022/06/10 05:07:07;;;;;;;;;;;;;;;-140.72;100.00;52476.09;6261921;22;19911;-68
2022/06/10 05:09:32;;;;;;;;;;;;;;;-140.72;100.00;52496.38;6288370;22;19911;-67
2022/06/10 05:11:58;;;;;;;;;;;;;;;-140.72;100.00;52526.81;6289021;22;19934;-67
2022/06/10 05:14:23;;;;;;;;;;;;;;;-140.72;100.00;52545.06;6288791;22;19915;-67
2022/06/10 05:16:48;;;;;;;;;;;;;;;-140.72;100.00;52488.25;6287510;22;19965;-67
2022/06/10 05:19:13;;;;;;;;;;;;;;;-140.72;100.00;52480.16;6258975;22;19954;-67
2022/06/10 05:21:39;;;;;;;;;;;;;;;-140.72;100.00;52536.97;6286906;22;19919;-68
2022/06/10 05:24:04;;;;;;;;;;;;;;;-140.72;100.00;52484.19;6287387;22;19911;-67
2022/06/10 05:26:30;;;;;;;;;;;;;;;-140.72;100.00;52543.03;6286789;22;19911;-68
2022/06/10 05:28:56;;;;;;;;;;;;;;;-140.72;100.00;52524.78;6260388;22;19911;-68
2022/06/10 05:31:21;;;;;;;;;;;;;;;-140.72;100.00;52502.47;6295920;22;19931;-69
2022/06/10 05:36:30;;;;;;;;;;;;;;;-140.72;100.00;52494.34;6296883;22;19938;-68
2022/06/10 05:38:55;;;;;;;;;;;;;;;-140.72;100.00;52512.59;6294237;22;19911;-71
2022/06/10 05:44:05;;;;;;;;;;;;;;;-140.72;100.00;52476.09;6291617;22;19922;-71
2022/06/10 05:46:30;;;;;;;;;;;;;;;-140.72;100.00;52516.66;6292932;22;19911;-70
2022/06/10 05:48:55;;;;;;;;;;;;;;;-140.72;100.00;52512.59;6292609;22;19958;-68
2022/06/10 05:51:20;;;;;;;;;;;;;;;-140.72;100.00;52510.59;6289918;22;19927;-70
2022/06/10 05:53:46;;;;;;;;;;;;;;;-140.72;100.00;52478.13;6264197;22;19921;-68
2022/06/10 05:56:11;;;;;;;;;;;;;;;-140.72;100.00;52524.78;6291832;22;19916;-69
2022/06/10 05:58:36;;;;;;;;;;;;;;;-140.72;100.00;52504.50;6263463;22;19911;-70
2022/06/10 06:01:01;;;;;;;;;;;;;;;-140.72;100.00;52500.44;6289047;22;19912;-70
2022/06/10 06:03:26;;;;;;;;;;;;;;;-140.72;100.00;52512.59;6261839;22;20278;-68
2022/06/10 06:05:52;;;;;;;;;;;;;;;-140.72;100.00;52506.53;6287826;22;19912;-68
2022/06/10 06:08:17;;;;;;;;;;;;;;;-140.72;100.00;52504.50;6292185;22;20714;-78
2022/06/10 06:10:43;;;;;;;;;;;;;;;-140.72;100.00;52494.34;6285208;22;19911;-67
2022/06/10 06:13:09;;;;;;;;;;;;;;;-140.72;100.00;52476.09;6256791;22;19977;-67
2022/06/10 06:15:34;;;;;;;;;;;;;;;-140.72;100.00;52480.16;6283492;22;19911;-67
2022/06/10 06:17:59;;;;;;;;;;;;;;;-140.72;100.00;52492.31;6283759;22;19912;-67
2022/06/10 06:20:24;;;;;;;;;;;;;;;-140.72;100.00;52445.66;6281631;22;19945;-67
2022/06/10 06:22:50;;;;;;;;;;;;;;;-140.72;100.00;52472.03;6282315;22;19956;-67
2022/06/10 06:25:16;;;;;;;;;;;;;;;-140.72;100.00;52467.97;6283406;22;19939;-67
2022/06/10 06:27:42;;;;;;;;;;;;;;;-140.72;100.00;52467.97;6256418;22;19916;-67
2022/06/10 06:30:10;;;;;;;;;;;;;;;-140.72;100.00;52474.06;6256164;22;19918;-67
2022/06/10 06:32:35;;;;;;;;;;;;;;;-140.72;100.00;52453.75;6284288;22;19942;-67
2022/06/10 06:35:01;;;;;;;;;;;;;;;-140.72;100.00;52472.03;6257521;22;20332;-67
2022/06/10 06:37:26;;;;;;;;;;;;;;;-140.72;100.00;52467.97;6256062;22;19915;-67
2022/06/10 06:39:51;;;;;;;;;;;;;;;-140.72;100.00;52463.91;6284308;22;19986;-67
2022/06/10 06:42:16;;;;;;;;;;;;;;;-140.72;100.00;52459.84;6283884;22;19915;-66
2022/06/10 06:44:41;;;;;;;;;;;;;;;-140.72;100.00;52453.75;6283381;22;19911;-66
2022/06/10 06:47:11;;;;;;;;;;;;;;;-140.72;100.00;52447.69;6284189;22;19911;-68
2022/06/10 06:49:37;;;;;;;;;;;;;;;-140.72;100.00;52443.63;6255862;22;20022;-66
2022/06/10 06:52:03;;;;;;;;;;;;;;;-140.72;100.00;52419.28;6283592;22;19918;-68
2022/06/10 06:54:29;;;;;;;;;;;;;;;-140.72;100.00;52419.28;6283027;22;20003;-67
2022/06/10 06:56:54;;;;;;;;;;;;;;;-140.72;100.00;52453.75;6256240;22;19907;-66
2022/06/10 06:59:19;;;;;;;;;;;;;;;-140.72;100.00;52447.69;6255975;22;19911;-67
2022/06/10 07:01:44;;;;;;;;;;;;;;;-140.72;100.00;52431.44;6283103;22;19937;-68
2022/06/10 07:04:09;;;;;;;;;;;;;;;-140.72;100.00;52423.31;6256478;22;20245;-66
2022/06/10 07:06:35;;;;;;;;;;;;;;;-140.72;100.00;52405.06;6283678;22;19969;-68
2022/06/10 07:09:01;;;;;;;;;;;;;;;-140.72;100.00;52398.97;6256906;22;19992;-69
2022/06/10 07:11:26;;;;;;;;;;;;;;;-140.72;100.00;52390.84;6286199;22;19918;-69
2022/06/10 07:13:52;;;;;;;;;;;;;;;-140.72;100.00;52419.28;6285781;22;19981;-69
2022/06/10 07:16:17;;;;;;;;;;;;;;;-140.72;100.00;52390.84;6258793;22;19911;-68
2022/06/10 07:18:43;;;;;;;;;;;;;;;-140.72;100.00;52423.31;6286434;22;19911;-68
2022/06/10 07:21:08;;;;;;;;;;;;;;;-140.72;100.00;52396.94;6284538;22;19915;-70
2022/06/10 07:23:34;;;;;;;;;;;;;;;-140.72;100.00;52413.19;6284279;22;19936;-70
2022/06/10 07:25:59;;;;;;;;;;;;;;;-140.72;100.00;52425.34;6285266;22;19982;-70
2022/06/10 07:28:25;;;;;;;;;;;;;;;-140.72;100.00;52423.31;6259366;22;19942;-71
2022/06/10 07:30:50;;;;;;;;;;;;;;;-140.72;100.00;52427.38;6258724;22;19915;-68
2022/06/10 07:33:16;;;;;;;;;;;;;;;-140.72;100.00;52411.16;6260036;22;19957;-71
2022/06/10 07:35:42;;;;;;;;;;;;;;;-140.72;100.00;52403.03;6281699;22;19911;-70
2022/06/10 07:38:07;;;;;;;;;;;;;;;-140.72;100.00;52382.75;6255776;22;20332;-69
2022/06/10 07:43:19;;;;;;;;;;;;;;;-140.72;100.00;52411.16;6282825;22;19918;-69
2022/06/10 07:45:45;;;;;;;;;;;;;;;-140.72;100.00;52411.16;6283173;22;19911;-69
2022/06/10 07:48:13;;;;;;;;;;;;;;;-140.72;100.00;52372.59;6282435;22;19911;-69
2022/06/10 07:50:39;;;;;;;;;;;;;;;-140.72;100.00;52388.84;6282399;22;19911;-70
2022/06/10 07:53:04;;;;;;;;;;;;;;;-140.72;100.00;52388.84;6255179;22;19979;-68
2022/06/10 07:55:29;;;;;;;;;;;;;;;-140.72;100.00;52370.56;6262097;22;19951;-69
2022/06/10 07:57:55;;;;;;;;;;;;;;;-140.72;100.00;52374.63;6290420;22;19938;-69
2022/06/10 08:00:20;;;;;;;;;;;;;;;-140.72;100.00;52413.19;6291390;22;19961;-70
2022/06/10 08:02:46;;;;;;;;;;;;;;;-140.72;100.00;52423.31;6261917;22;19934;-69
2022/06/10 08:05:13;;;;;;;;;;;;;;;-140.72;100.00;52415.22;6283961;22;19911;-69
2022/06/10 08:07:38;;;;;;;;;;;;;;;-140.72;100.00;52421.28;6284329;22;19927;-70
2022/06/10 08:10:04;;;;;;;;;;;;;;;-140.72;100.00;52425.34;6256015;22;19918;-70
2022/06/10 08:12:30;;;;;;;;;;;;;;;-140.72;100.00;52386.81;6282153;22;19911;-69
2022/06/10 08:14:55;;;;;;;;;;;;;;;-140.72;100.00;52376.66;6256328;22;20310;-72
2022/06/10 08:17:20;;;;;;;;;;;;;;;-140.72;100.00;52366.50;6254592;22;20244;-69
2022/06/10 08:19:45;;;;;;;;;;;;;;;-140.72;100.00;52405.06;6282825;22;19972;-69
2022/06/10 08:24:55;;;;;;;;;;;;;;;-140.72;100.00;52374.63;6280722;22;20260;-69
2022/06/10 08:27:20;;;;;;;;;;;;;;;-140.72;100.00;52364.47;6280352;22;19915;-73
2022/06/10 08:29:45;;;;;;;;;;;;;;;-140.72;100.00;52356.38;6280889;22;19919;-70
2022/06/10 08:32:10;;;;;;;;;;;;;;;-140.72;100.00;52354.34;6253001;22;19965;-70
2022/06/10 08:34:41;;;;;;;;;;;;;;;-140.72;100.00;52384.78;6254009;22;19933;-70
2022/06/10 08:37:06;;;;;;;;;;;;;;;-140.72;100.00;52344.19;6279637;22;19911;-69
2022/06/10 08:39:32;;;;;;;;;;;;;;;-140.72;100.00;52317.81;6253506;22;19911;-69
2022/06/10 08:42:07;;;;;;;;;;;;;;;-140.72;100.00;52330.00;6286982;22;19915;-71
2022/06/10 08:44:42;;;;;;;;;;;;;;;-140.72;100.00;52295.50;6258766;22;19922;-69
2022/06/10 08:47:27;;;;;;;;;;;;;;;-140.72;100.00;52287.38;6261489;22;19911;-68
2022/06/10 08:50:11;;;;;;;;;;;;;;;-140.72;100.00;52289.41;6255632;22;20348;-69
2022/06/10 08:52:39;;;;;;;;;;;;;;;-140.72;100.00;52301.59;6254643;22;19911;-68
2022/06/10 08:55:10;;;;;;;;;;;;;;;-140.72;100.00;52263.03;6282155;22;19915;-67
2022/06/10 08:57:38;;;;;;;;;;;;;;;-140.72;100.00;52277.22;6282107;22;20252;-67
2022/06/10 09:00:15;;;;;;;;;;;;;;;-140.72;100.00;52275.19;6283234;22;19923;-70
2022/06/10 09:02:55;;;;;;;;;;;;;;;-140.72;100.00;52236.66;6282231;22;19915;-65
2022/06/10 09:05:23;;;;;;;;;;;;;;;-140.72;100.00;52261.00;6282171;22;19957;-66
2022/06/10 09:07:54;;;;;;;;;;;;;;;-140.72;100.00;52319.84;6282339;22;19959;-65
2022/06/10 09:10:19;;;;;;;;;;;;;;;-140.72;100.00;52281.28;6254951;22;19915;-68
2022/06/10 09:12:44;;;;;;;;;;;;;;;-140.72;100.00;52297.53;6254865;22;19911;-66
2022/06/10 09:15:11;;;;;;;;;;;;;;;-140.72;100.00;52275.19;6282119;22;19926;-67
2022/06/10 09:17:40;;;;;;;;;;;;;;;-140.72;100.00;52232.59;6282750;22;19911;-66
2022/06/10 09:20:28;;;;;;;;;;;;;;;-140.72;100.00;52301.59;6282744;22;19982;-66
2022/06/10 09:23:06;;;;;;;;;;;;;;;-140.72;100.00;52281.28;6282447;22;20333;-67
2022/06/10 09:25:39;;;;;;;;;;;;;;;-140.72;100.00;52265.06;6282253;22;20234;-65
2022/06/10 09:28:04;;;;;;;;;;;;;;;-140.72;100.00;52143.31;6283513;22;20052;-66
2022/06/10 09:30:33;;;;;;;;;;;;;;;-140.72;100.00;52285.34;6255449;22;19911;-67
2022/06/10 09:33:20;;;;;;;;;;;;;;;-140.72;100.00;52238.69;6282414;22;19918;-68
2022/06/10 09:35:53;;;;;;;;;;;;;;;-140.72;100.00;52214.34;6282165;22;19915;-66
2022/06/10 09:38:18;;;;;;;;;;;;;;;-140.72;100.00;52110.84;6254648;22;20262;-69
2022/06/10 09:40:56;;;;;;;;;;;;;;;-140.72;100.00;52194.03;6282263;22;19911;-67
2022/06/10 09:43:21;;;;;;;;;;;;;;;-140.72;100.00;52167.66;6286187;22;19915;-67
2022/06/10 09:45:49;;;;;;;;;;;;;;;-140.72;100.00;52246.78;6285204;22;20229;-67
2022/06/10 09:48:27;;;;;;;;;;;;;;;-140.72;100.00;52321.88;6285458;22;20392;-67
2022/06/10 09:51:04;;;;;;;;;;;;;;;-140.72;100.00;52161.56;6284800;22;19912;-66
2022/06/10 09:53:51;;;;;;;;;;;;;;;-140.72;100.00;52110.84;6257362;22;19919;-68
2022/06/10 09:56:30;;;;;;;;;;;;;;;-140.72;100.00;52198.09;6284984;22;19915;-68
2022/06/10 09:59:07;;;;;;;;;;;;;;;-140.72;100.00;52256.94;6283947;22;19911;-66
2022/06/10 10:01:41;;;;;;;;;;;;;;;-140.72;100.00;52157.53;6285378;22;19912;-66
2022/06/10 10:04:25;;;;;;;;;;;;;;;-140.72;100.00;52189.97;6285456;22;19912;-67
2022/06/10 10:07:09;;;;;;;;;;;;;;;-140.72;100.00;52175.78;6284382;22;19937;-66
2022/06/10 10:09:50;;;;;;;;;;;;;;;-140.72;100.00;52066.22;6283576;22;19918;-66
2022/06/10 10:12:21;;;;;;;;;;;;;;;-140.72;100.00;52179.84;6256997;22;19911;-67
2022/06/10 10:14:53;;;;;;;;;;;;;;;-140.72;100.00;52238.69;6285693;22;19962;-66
2022/06/10 10:17:37;;;;;;;;;;;;;;;-140.72;100.00;52281.28;6284968;22;19911;-66
2022/06/10 10:20:26;;;;;;;;;;;;;;;-140.72;100.00;52313.75;6257347;22;19911;-68
2022/06/10 10:23:01;;;;;;;;;;;;;;;-140.72;100.00;52293.47;6258082;22;20289;-66
2022/06/10 10:25:27;;;;;;;;;;;;;;;-140.72;100.00;52202.16;6286303;22;19911;-66
2022/06/10 10:27:53;;;;;;;;;;;;;;;-140.72;100.00;52204.19;6287154;22;19942;-69
2022/06/10 10:30:32;;;;;;;;;;;;;;;-140.72;100.00;52110.84;6285425;22;19913;-66
2022/06/10 10:33:02;;;;;;;;;;;;;;;-140.72;100.00;52070.28;6257565;22;19911;-66
2022/06/10 10:35:30;;;;;;;;;;;;;;;-140.72;100.00;52149.41;6283852;22;19918;-67
2022/06/10 10:37:57;;;;;;;;;;;;;;;-140.72;100.00;52106.78;6257982;22;19919;-67
2022/06/10 10:40:32;;;;;;;;;;;;;;;-140.72;100.00;52189.97;6258465;22;19915;-67
2022/06/10 10:43:01;;;;;;;;;;;;;;;-140.72;100.00;52222.44;6258570;22;19911;-67
2022/06/10 10:45:32;;;;;;;;;;;;;;;-140.72;100.00;52232.59;6284724;22;19911;-67
2022/06/10 10:48:17;;;;;;;;;;;;;;;-140.72;100.00;52196.06;6283413;22;19923;-67
2022/06/10 10:50:51;;;;;;;;;;;;;;;-140.72;100.00;52273.19;6256570;22;19972;-67
2022/06/10 10:53:20;;;;;;;;;;;;;;;-140.72;100.00;52261.00;6283938;22;19911;-67
2022/06/10 10:55:49;;;;;;;;;;;;;;;-140.72;100.00;52309.69;6284446;22;19915;-67
2022/06/10 10:58:24;;;;;;;;;;;;;;;-140.72;100.00;52289.41;6283474;22;20325;-67
2022/06/10 11:00:57;;;;;;;;;;;;;;;-140.72;100.00;52313.75;6284948;22;19918;-67
2022/06/10 11:03:22;;;;;;;;;;;;;;;-140.72;100.00;52289.41;6284324;22;20017;-66
2022/06/10 11:05:48;;;;;;;;;;;;;;;-140.72;100.00;52315.78;6285199;22;19911;-66
2022/06/10 11:08:16;;;;;;;;;;;;;;;-140.72;100.00;52204.19;6256567;22;20300;-66
2022/06/10 11:10:54;;;;;;;;;;;;;;;-140.72;100.00;52116.94;6284619;22;19937;-68
2022/06/10 11:13:25;;;;;;;;;;;;;;;-140.72;100.00;52094.63;6283916;22;19949;-68
2022/06/10 11:15:50;;;;;;;;;;;;;;;-140.72;100.00;52143.31;6283700;22;19915;-66
2022/06/10 11:18:16;;;;;;;;;;;;;;;-140.72;100.00;52098.69;6283455;22;19918;-66
2022/06/10 11:20:41;;;;;;;;;;;;;;;-140.72;100.00;52060.13;6256735;22;19962;-66
2022/06/10 11:23:19;;;;;;;;;;;;;;;-140.72;100.00;52029.69;6283167;22;19912;-67
2022/06/10 11:25:46;;;;;;;;;;;;;;;-140.72;100.00;52100.72;6283132;22;20405;-66
2022/06/10 11:28:19;;;;;;;;;;;;;;;-140.72;100.00;52062.16;6283693;22;19922;-67
2022/06/10 11:30:48;;;;;;;;;;;;;;;-140.72;100.00;52123.03;6256240;22;19915;-67
2022/06/10 11:33:16;;;;;;;;;;;;;;;-140.72;100.00;52169.69;6284254;22;19918;-70
2022/06/10 11:35:57;;;;;;;;;;;;;;;-140.72;100.00;52216.34;6283819;22;20304;-67
2022/06/10 11:38:26;;;;;;;;;;;;;;;-140.72;100.00;52196.06;6283210;22;20310;-66
2022/06/10 11:40:56;;;;;;;;;;;;;;;-140.72;100.00;52072.31;6282093;22;19919;-68
2022/06/10 11:43:31;;;;;;;;;;;;;;;-140.72;100.00;52037.81;6283542;22;19916;-68
2022/06/10 11:46:02;;;;;;;;;;;;;;;-140.72;100.00;51964.78;6255947;22;19911;-67
2022/06/10 11:48:45;;;;;;;;;;;;;;;-140.72;100.00;51926.22;6283192;22;20298;-67
2022/06/10 11:51:31;;;;;;;;;;;;;;;-140.72;100.00;52054.03;6282595;22;20324;-68
2022/06/10 11:54:15;;;;;;;;;;;;;;;-140.72;100.00;52049.97;6256241;22;19912;-67
2022/06/10 11:59:52;;;;;;;;;;;;;;;-140.72;100.00;52183.91;6241973;22;19960;-66
2022/06/10 12:02:35;;;;;;;;;;;;;;;-140.72;100.00;52153.47;6281809;22;21410;-66
2022/06/10 12:05:06;;;;;;;;;;;;;;;-140.72;100.00;52106.78;6255671;22;19934;-66
2022/06/10 12:07:33;;;;;;;;;;;;;;;-140.72;100.00;51974.91;6284148;22;20255;-66
2022/06/10 12:10:01;;;;;;;;;;;;;;;-140.72;100.00;52054.03;6255014;22;19922;-67
2022/06/10 12:12:29;;;;;;;;;;;;;;;-140.72;100.00;52114.91;6282502;22;19965;-67
2022/06/10 12:14:56;;;;;;;;;;;;;;;-140.72;100.00;52116.94;6282808;22;19911;-67
2022/06/10 12:17:27;;;;;;;;;;;;;;;-140.72;100.00;52157.53;6280941;22;19915;-66
2022/06/10 12:20:04;;;;;;;;;;;;;;;-140.72;100.00;52149.41;6255863;22;19911;-68
2022/06/10 12:22:29;;;;;;;;;;;;;;;-140.72;100.00;52070.28;6283784;22;19915;-67
2022/06/10 12:24:56;;;;;;;;;;;;;;;-140.72;100.00;52088.53;6283496;22;19917;-66
2022/06/10 12:27:28;;;;;;;;;;;;;;;-140.72;100.00;52005.34;6255680;22;19911;-67
2022/06/10 12:30:10;;;;;;;;;;;;;;;-140.72;100.00;52076.34;6285081;22;19912;-67
2022/06/10 12:32:45;;;;;;;;;;;;;;;-140.72;100.00;52110.84;6255218;22;20349;-67
2022/06/10 12:35:21;;;;;;;;;;;;;;;-140.72;100.00;51991.16;6254972;22;19912;-67
2022/06/10 12:37:55;;;;;;;;;;;;;;;-140.72;100.00;51907.97;6281839;22;19918;-68
2022/06/10 12:40:25;;;;;;;;;;;;;;;-140.72;100.00;51940.41;6282952;22;19919;-67
2022/06/10 12:43:00;;;;;;;;;;;;;;;-140.72;100.00;52011.44;6282231;22;19915;-67
2022/06/10 12:45:25;;;;;;;;;;;;;;;-140.72;100.00;52076.34;6255515;22;19950;-68
2022/06/10 12:47:55;;;;;;;;;;;;;;;-140.72;100.00;52031.72;6254612;22;19915;-68
2022/06/10 12:50:33;;;;;;;;;;;;;;;-140.72;100.00;51944.47;6254321;22;19930;-66
2022/06/10 12:52:59;;;;;;;;;;;;;;;-140.72;100.00;51895.78;6282398;22;19911;-67
2022/06/10 12:55:47;;;;;;;;;;;;;;;-140.72;100.00;52064.19;6281460;22;19998;-69